Pallini, Greece

2:34 PM EET on January 25, 2015 (GMT +0200)
Pallini greece | Change Station
CLOSE
Current Station
Personal Weather Station
Location: pallini, attica
Elevation: 833 ft
Nearby Weather Stations

Elev 833 ft 38.02 °N, 23.88 °E | Updated 7 seconds ago

Scattered Clouds
Scattered Clouds
59.0 °F
Feels Like 59.0 °F
N
5.0
Wind Variable Wind from SSW
Gusts 8.0 mph

Today
High -- | Low -- °F
--% Chance of Precip.
Yesterday
High -- | Low -- °F
Precip. -- in
7:34 AM 5:39 PM
Waxing Crescent, 32% visible
Pressure 29.80 in
Visibility 6.2 miles
Clouds Scattered Clouds 3000 ft
Dew Point 48 °F
Humidity 67%
Rainfall 0.09 in
Snow Depth Not available.
UV 2 out of 12
Pollen Not available.
Air Quality Not available.
Flu Activity Not available.
METAR LGAV 251220Z 22010KT 180V250 9999 SCT030 15/08 Q1009 NOSIG

More Conditions Fewer Conditions

Pressure 29.80 in
Visibility 6.2 miles
Clouds Scattered Clouds 3000 ft
Dew Point 48 °F
Humidity 67%
Rainfall 0.09 in
Snow Depth Not available.
UV 2 out of 12
Pollen Not available.
Air Quality Not available.
Flu Activity Not available.
METAR LGAV 251220Z 22010KT 180V250 9999 SCT030 15/08 Q1009 NOSIG

More Conditions Fewer Conditions

10-Day Weather Forecast

Almanac

Astronomy

Jan. 25, 2015 Rise Set
Actual Time
Civil Twilight
Nautical Twilight
Astronomical Twilight
Moon
Length of Visible Light
Length of Day
Tomorrow will be .
, % of the Moon is Illuminated

Today's Extremes

Country Highs Country Lows

Community

WunderPhotos

Upload Photos

1,789,873 photos uploaded!

WunderBlogs® & News

Nearby

Air Quality

  Air Quality AQ Index Pollutant
Not available.

Snow Depth

Station Depth Elevation

Earthquake Activity

City Distance Mag. Time & Date
Minimum magnitude displayed is 2.5.

Coastal Water Temperatures

Place Temperature

Nearby Weather Stations